sensor_id;sensor_type;location;lat;lon;timestamp;pressure;altitude;pressure_sealevel;temperature;humidity
72921;BME280;61064;51.654;5.476;2023-02-18T00:01:02;102273.19;;;11.50;86.69
72921;BME280;61064;51.654;5.476;2023-02-18T00:03:32;102263.44;;;11.50;86.74
72921;BME280;61064;51.654;5.476;2023-02-18T00:05:57;102258.06;;;11.49;86.88
72921;BME280;61064;51.654;5.476;2023-02-18T00:08:23;102258.91;;;11.46;86.67
72921;BME280;61064;51.654;5.476;2023-02-18T00:10:48;102258.03;;;11.47;86.75
72921;BME280;61064;51.654;5.476;2023-02-18T00:13:14;102248.25;;;11.46;86.89
72921;BME280;61064;51.654;5.476;2023-02-18T00:15:39;102234.72;;;11.39;86.83
72921;BME280;61064;51.654;5.476;2023-02-18T00:18:05;102273.28;;;11.53;86.95
72921;BME280;61064;51.654;5.476;2023-02-18T00:20:31;102257.19;;;11.50;86.84
72921;BME280;61064;51.654;5.476;2023-02-18T00:22:58;102258.91;;;11.46;87.04
72921;BME280;61064;51.654;5.476;2023-02-18T00:25:23;102261.66;;;11.51;86.92
72921;BME280;61064;51.654;5.476;2023-02-18T00:27:49;102244.63;;;11.44;87.16
72921;BME280;61064;51.654;5.476;2023-02-18T00:30:14;102246.50;;;11.48;86.92
72921;BME280;61064;51.654;5.476;2023-02-18T00:32:40;102252.66;;;11.46;87.05
72921;BME280;61064;51.654;5.476;2023-02-18T00:35:05;102233.97;;;11.44;86.95
72921;BME280;61064;51.654;5.476;2023-02-18T00:37:31;102226.81;;;11.43;87.00
72921;BME280;61064;51.654;5.476;2023-02-18T00:39:56;102242.06;;;11.47;87.00
72921;BME280;61064;51.654;5.476;2023-02-18T00:42:22;102235.88;;;11.50;87.15
72921;BME280;61064;51.654;5.476;2023-02-18T00:44:47;102232.34;;;11.51;86.97
72921;BME280;61064;51.654;5.476;2023-02-18T00:47:12;102229.78;;;11.55;87.14
72921;BME280;61064;51.654;5.476;2023-02-18T00:49:38;102232.47;;;11.55;87.14
72921;BME280;61064;51.654;5.476;2023-02-18T00:52:04;102229.84;;;11.57;87.16
72921;BME280;61064;51.654;5.476;2023-02-18T00:54:29;102219.06;;;11.52;87.15
72921;BME280;61064;51.654;5.476;2023-02-18T00:56:54;102214.66;;;11.53;87.39
72921;BME280;61064;51.654;5.476;2023-02-18T00:59:20;102210.03;;;11.46;87.16
72921;BME280;61064;51.654;5.476;2023-02-18T01:01:45;102209.28;;;11.51;87.17
72921;BME280;61064;51.654;5.476;2023-02-18T01:04:11;102200.38;;;11.51;87.23
72921;BME280;61064;51.654;5.476;2023-02-18T01:06:37;102204.00;;;11.53;87.21
72921;BME280;61064;51.654;5.476;2023-02-18T01:09:03;102200.53;;;11.57;87.38
72921;BME280;61064;51.654;5.476;2023-02-18T01:11:28;102190.66;;;11.54;87.48
72921;BME280;61064;51.654;5.476;2023-02-18T01:13:54;102186.09;;;11.49;87.32
72921;BME280;61064;51.654;5.476;2023-02-18T01:16:19;102188.84;;;11.52;87.47
72921;BME280;61064;51.654;5.476;2023-02-18T01:18:45;102194.25;;;11.55;87.29
72921;BME280;61064;51.654;5.476;2023-02-18T01:21:10;102171.88;;;11.48;87.49
72921;BME280;61064;51.654;5.476;2023-02-18T01:23:38;102191.66;;;11.58;87.51
72921;BME280;61064;51.654;5.476;2023-02-18T01:26:03;102175.47;;;11.50;87.51
72921;BME280;61064;51.654;5.476;2023-02-18T01:28:29;102194.34;;;11.58;87.55
72921;BME280;61064;51.654;5.476;2023-02-18T01:30:54;102184.47;;;11.55;87.54
72921;BME280;61064;51.654;5.476;2023-02-18T01:33:20;102203.28;;;11.61;87.58
72921;BME280;61064;51.654;5.476;2023-02-18T01:35:46;102188.91;;;11.53;87.58
72921;BME280;61064;51.654;5.476;2023-02-18T01:38:12;102197.91;;;11.58;87.86
72921;BME280;61064;51.654;5.476;2023-02-18T01:40:45;102189.06;;;11.61;87.72
72921;BME280;61064;51.654;5.476;2023-02-18T01:43:15;102198.81;;;11.60;87.81
72921;BME280;61064;51.654;5.476;2023-02-18T01:46:03;102198.75;;;11.57;87.94
72921;BME280;61064;51.654;5.476;2023-02-18T01:48:43;102187.09;;;11.52;87.89
72921;BME280;61064;51.654;5.476;2023-02-18T01:51:14;102192.47;;;11.55;87.83
72921;BME280;61064;51.654;5.476;2023-02-18T01:53:55;102189.78;;;11.54;88.15
72921;BME280;61064;51.654;5.476;2023-02-18T01:56:28;102192.41;;;11.52;88.26
72921;BME280;61064;51.654;5.476;2023-02-18T01:58:57;102172.75;;;11.49;88.23
72921;BME280;61064;51.654;5.476;2023-02-18T02:01:25;102162.75;;;11.39;88.39
72921;BME280;61064;51.654;5.476;2023-02-18T02:03:50;102183.31;;;11.44;88.56
72921;BME280;61064;51.654;5.476;2023-02-18T02:06:20;102186.94;;;11.46;88.60
72921;BME280;61064;51.654;5.476;2023-02-18T02:08:47;102178.03;;;11.46;88.51
72921;BME280;61064;51.654;5.476;2023-02-18T02:14:17;102152.00;;;11.34;88.93
72921;BME280;61064;51.654;5.476;2023-02-18T02:17:03;102160.00;;;11.34;89.07
72921;BME280;61064;51.654;5.476;2023-02-18T02:25:20;102160.00;;;11.34;89.33
72921;BME280;61064;51.654;5.476;2023-02-18T02:32:02;102151.03;;;11.32;89.40
72921;BME280;61064;51.654;5.476;2023-02-18T02:39:34;102120.59;;;11.21;89.58
72921;BME280;61064;51.654;5.476;2023-02-18T02:42:57;102134.03;;;11.25;89.77
72921;BME280;61064;51.654;5.476;2023-02-18T02:47:50;102098.25;;;11.14;89.75
72921;BME280;61064;51.654;5.476;2023-02-18T02:50:27;102112.56;;;11.19;89.78
72921;BME280;61064;51.654;5.476;2023-02-18T02:53:02;102108.22;;;11.23;89.97
72921;BME280;61064;51.654;5.476;2023-02-18T02:55:30;102096.50;;;11.16;90.09
72921;BME280;61064;51.654;5.476;2023-02-18T02:57:55;102082.13;;;11.10;90.07
72921;BME280;61064;51.654;5.476;2023-02-18T03:00:38;102063.34;;;11.04;90.23
72921;BME280;61064;51.654;5.476;2023-02-18T03:08:49;102075.91;;;11.09;90.49
72921;BME280;61064;51.654;5.476;2023-02-18T03:11:19;102053.44;;;10.98;90.52
72921;BME280;61064;51.654;5.476;2023-02-18T03:16:46;102059.81;;;11.03;90.73
72921;BME280;61064;51.654;5.476;2023-02-18T03:19:37;102057.06;;;11.00;90.86
72921;BME280;61064;51.654;5.476;2023-02-18T03:22:26;102043.69;;;10.99;91.01
72921;BME280;61064;51.654;5.476;2023-02-18T03:24:55;102023.19;;;10.95;90.92
72921;BME280;61064;51.654;5.476;2023-02-18T03:27:22;102045.44;;;10.97;91.10
72921;BME280;61064;51.654;5.476;2023-02-18T03:29:57;102023.91;;;10.88;91.18
72921;BME280;61064;51.654;5.476;2023-02-18T03:32:26;102024.91;;;10.91;91.25
72921;BME280;61064;51.654;5.476;2023-02-18T03:34:58;102011.53;;;10.90;91.48
72921;BME280;61064;51.654;5.476;2023-02-18T03:37:24;102031.03;;;10.89;91.33
72921;BME280;61064;51.654;5.476;2023-02-18T03:39:55;102005.25;;;10.88;91.45
72921;BME280;61064;51.654;5.476;2023-02-18T03:42:26;101995.34;;;10.80;91.48
72921;BME280;61064;51.654;5.476;2023-02-18T03:44:52;102007.91;;;10.88;91.82
72921;BME280;61064;51.654;5.476;2023-02-18T03:47:17;101999.03;;;10.86;91.62
72921;BME280;61064;51.654;5.476;2023-02-18T03:49:43;101995.41;;;10.83;91.76
72921;BME280;61064;51.654;5.476;2023-02-18T03:52:08;102006.16;;;10.88;91.69
72921;BME280;61064;51.654;5.476;2023-02-18T03:54:33;101990.84;;;10.78;91.83
72921;BME280;61064;51.654;5.476;2023-02-18T03:56:59;101978.38;;;10.75;91.79
72921;BME280;61064;51.654;5.476;2023-02-18T03:59:24;101984.72;;;10.82;91.89
72921;BME280;61064;51.654;5.476;2023-02-18T04:01:49;101991.94;;;10.86;91.92
72921;BME280;61064;51.654;5.476;2023-02-18T04:04:15;101989.28;;;10.88;92.00
72921;BME280;61064;51.654;5.476;2023-02-18T04:06:40;101972.31;;;10.81;91.94
72921;BME280;61064;51.654;5.476;2023-02-18T04:09:06;101974.97;;;10.81;92.14
72921;BME280;61064;51.654;5.476;2023-02-18T04:11:35;101974.13;;;10.83;92.11
72921;BME280;61064;51.654;5.476;2023-02-18T04:14:01;101975.72;;;10.75;92.10
72921;BME280;61064;51.654;5.476;2023-02-18T04:16:26;101963.31;;;10.77;92.21
72921;BME280;61064;51.654;5.476;2023-02-18T04:18:52;101957.09;;;10.77;92.41
72921;BME280;61064;51.654;5.476;2023-02-18T04:21:17;101964.25;;;10.79;92.40
72921;BME280;61064;51.654;5.476;2023-02-18T04:23:42;101942.72;;;10.70;92.47
72921;BME280;61064;51.654;5.476;2023-02-18T04:26:08;101946.44;;;10.77;92.44
72921;BME280;61064;51.654;5.476;2023-02-18T04:28:33;101945.41;;;10.70;92.35
72921;BME280;61064;51.654;5.476;2023-02-18T04:30:59;101949.09;;;10.75;92.57
72921;BME280;61064;51.654;5.476;2023-02-18T04:33:24;101950.66;;;10.67;92.55
72921;BME280;61064;51.654;5.476;2023-02-18T04:35:49;101941.03;;;10.72;92.69
72921;BME280;61064;51.654;5.476;2023-02-18T04:38:15;101937.34;;;10.67;92.37
72921;BME280;61064;51.654;5.476;2023-02-18T04:40:40;101952.63;;;10.76;92.74
72921;BME280;61064;51.654;5.476;2023-02-18T04:43:05;101950.75;;;10.72;92.62
72921;BME280;61064;51.654;5.476;2023-02-18T04:45:31;101955.22;;;10.73;92.72
72921;BME280;61064;51.654;5.476;2023-02-18T04:47:56;101945.34;;;10.67;92.76
72921;BME280;61064;51.654;5.476;2023-02-18T04:50:22;101956.03;;;10.69;92.88
72921;BME280;61064;51.654;5.476;2023-02-18T04:52:47;101947.16;;;10.68;92.84
72921;BME280;61064;51.654;5.476;2023-02-18T04:55:13;101942.69;;;10.67;92.84
72921;BME280;61064;51.654;5.476;2023-02-18T04:57:38;101934.75;;;10.69;92.97
72921;BME280;61064;51.654;5.476;2023-02-18T05:00:08;101930.28;;;10.68;93.02
72921;BME280;61064;51.654;5.476;2023-02-18T05:02:34;101933.88;;;10.71;93.00
72921;BME280;61064;51.654;5.476;2023-02-18T05:04:59;101936.56;;;10.71;93.00
72921;BME280;61064;51.654;5.476;2023-02-18T05:07:25;101924.91;;;10.66;93.12
72921;BME280;61064;51.654;5.476;2023-02-18T05:09:50;101941.88;;;10.70;93.03
72921;BME280;61064;51.654;5.476;2023-02-18T05:12:16;101945.41;;;10.70;92.83
72921;BME280;61064;51.654;5.476;2023-02-18T05:14:41;101910.69;;;10.66;93.02
72921;BME280;61064;51.654;5.476;2023-02-18T05:17:07;101894.53;;;10.57;93.01
72921;BME280;61064;51.654;5.476;2023-02-18T05:19:32;101926.81;;;10.72;93.04
72921;BME280;61064;51.654;5.476;2023-02-18T05:21:58;101896.34;;;10.59;93.15
72921;BME280;61064;51.654;5.476;2023-02-18T05:24:23;101914.34;;;10.69;93.08
72921;BME280;61064;51.654;5.476;2023-02-18T05:26:48;101924.03;;;10.67;93.29
72921;BME280;61064;51.654;5.476;2023-02-18T05:29:14;101907.06;;;10.62;93.20
72921;BME280;61064;51.654;5.476;2023-02-18T05:31:39;101882.88;;;10.52;93.32
72921;BME280;61064;51.654;5.476;2023-02-18T05:34:04;101910.69;;;10.64;93.38
72921;BME280;61064;51.654;5.476;2023-02-18T05:36:30;101916.91;;;10.66;93.43
72921;BME280;61064;51.654;5.476;2023-02-18T05:38:55;101900.84;;;10.62;93.35
72921;BME280;61064;51.654;5.476;2023-02-18T05:41:21;101908.78;;;10.60;93.37
72921;BME280;61064;51.654;5.476;2023-02-18T05:43:46;101898.13;;;10.59;93.21
72921;BME280;61064;51.654;5.476;2023-02-18T05:46:30;101912.53;;;10.68;93.24
72921;BME280;61064;51.654;5.476;2023-02-18T05:48:56;101890.16;;;10.59;93.75
72921;BME280;61064;51.654;5.476;2023-02-18T05:51:21;101892.88;;;10.62;93.22
72921;BME280;61064;51.654;5.476;2023-02-18T05:53:46;101898.25;;;10.65;93.71
72921;BME280;61064;51.654;5.476;2023-02-18T05:56:12;101893.81;;;10.65;93.40
72921;BME280;61064;51.654;5.476;2023-02-18T05:58:37;101882.16;;;10.59;93.33
72921;BME280;61064;51.654;5.476;2023-02-18T06:01:03;101874.06;;;10.54;93.42
72921;BME280;61064;51.654;5.476;2023-02-18T06:03:29;101886.66;;;10.61;93.49
72921;BME280;61064;51.654;5.476;2023-02-18T06:05:54;101851.63;;;10.41;93.45
72921;BME280;61064;51.654;5.476;2023-02-18T06:08:20;101881.28;;;10.60;93.53
72921;BME280;61064;51.654;5.476;2023-02-18T06:10:45;101875.81;;;10.52;93.57
72921;BME280;61064;51.654;5.476;2023-02-18T06:13:11;101869.63;;;10.55;93.56
72921;BME280;61064;51.654;5.476;2023-02-18T06:15:37;101877.75;;;10.61;93.38
72921;BME280;61064;51.654;5.476;2023-02-18T06:18:02;101875.19;;;10.65;93.68
72921;BME280;61064;51.654;5.476;2023-02-18T06:20:28;101851.06;;;10.56;93.56
72921;BME280;61064;51.654;5.476;2023-02-18T06:22:53;101855.53;;;10.57;93.72
72921;BME280;61064;51.654;5.476;2023-02-18T06:25:18;101866.97;;;10.55;93.66
72921;BME280;61064;51.654;5.476;2023-02-18T06:27:44;101872.38;;;10.58;93.70
72921;BME280;61064;51.654;5.476;2023-02-18T06:30:09;101868.88;;;10.59;93.82
72921;BME280;61064;51.654;5.476;2023-02-18T06:32:35;101869.72;;;10.58;93.70
72921;BME280;61064;51.654;5.476;2023-02-18T06:35:00;101881.31;;;10.61;93.74
72921;BME280;61064;51.654;5.476;2023-02-18T06:37:26;101873.28;;;10.58;93.90
72921;BME280;61064;51.654;5.476;2023-02-18T06:39:51;101864.41;;;10.58;93.67
72921;BME280;61064;51.654;5.476;2023-02-18T06:42:17;101841.97;;;10.48;93.59
72921;BME280;61064;51.654;5.476;2023-02-18T06:44:42;101867.13;;;10.61;93.85
72921;BME280;61064;51.654;5.476;2023-02-18T06:47:07;101859.97;;;10.58;93.57
72921;BME280;61064;51.654;5.476;2023-02-18T06:49:33;101852.75;;;10.53;93.59
72921;BME280;61064;51.654;5.476;2023-02-18T06:52:00;101847.41;;;10.51;93.75
72921;BME280;61064;51.654;5.476;2023-02-18T06:54:26;101865.34;;;10.61;93.63
72921;BME280;61064;51.654;5.476;2023-02-18T06:56:51;101848.28;;;10.52;93.57
72921;BME280;61064;51.654;5.476;2023-02-18T06:59:16;101881.28;;;10.58;93.41
72921;BME280;61064;51.654;5.476;2023-02-18T07:01:42;101868.78;;;10.56;93.73
72921;BME280;61064;51.654;5.476;2023-02-18T07:04:07;101881.31;;;10.61;93.45
72921;BME280;61064;51.654;5.476;2023-02-18T07:06:33;101898.16;;;10.60;93.54
72921;BME280;61064;51.654;5.476;2023-02-18T07:08:58;101881.19;;;10.55;93.51
72921;BME280;61064;51.654;5.476;2023-02-18T07:11:23;101886.59;;;10.58;93.69
72921;BME280;61064;51.654;5.476;2023-02-18T07:13:49;101847.97;;;10.36;93.48
72921;BME280;61064;51.654;5.476;2023-02-18T07:16:14;101873.97;;;10.50;93.46
72921;BME280;61064;51.654;5.476;2023-02-18T07:18:40;101856.91;;;10.40;93.34
72921;BME280;61064;51.654;5.476;2023-02-18T07:21:05;101893.47;;;10.50;93.43
72921;BME280;61064;51.654;5.476;2023-02-18T07:23:30;101882.59;;;10.39;93.34
72921;BME280;61064;51.654;5.476;2023-02-18T07:26:07;101888.81;;;10.40;93.40
72921;BME280;61064;51.654;5.476;2023-02-18T07:28:33;101877.16;;;10.35;93.29
72921;BME280;61064;51.654;5.476;2023-02-18T07:30:58;101876.94;;;10.26;93.54
72921;BME280;61064;51.654;5.476;2023-02-18T07:33:24;101912.59;;;10.34;93.57
72921;BME280;61064;51.654;5.476;2023-02-18T07:35:57;101903.56;;;10.27;93.45
72921;BME280;61064;51.654;5.476;2023-02-18T07:38:23;101910.59;;;10.24;93.37
72921;BME280;61064;51.654;5.476;2023-02-18T07:40:50;101895.44;;;10.21;93.36
72921;BME280;61064;51.654;5.476;2023-02-18T07:43:16;101914.16;;;10.26;93.57
72921;BME280;61064;51.654;5.476;2023-02-18T07:45:41;101909.63;;;10.22;93.49
72921;BME280;61064;51.654;5.476;2023-02-18T07:48:07;101908.75;;;10.21;93.58
72921;BME280;61064;51.654;5.476;2023-02-18T07:50:33;101921.22;;;10.24;93.53
72921;BME280;61064;51.654;5.476;2023-02-18T07:53:02;101898.00;;;10.17;93.42
72921;BME280;61064;51.654;5.476;2023-02-18T07:55:27;101915.81;;;10.19;93.29
72921;BME280;61064;51.654;5.476;2023-02-18T07:58:34;101910.50;;;10.21;93.15
72921;BME280;61064;51.654;5.476;2023-02-18T08:00:59;101916.81;;;10.26;93.01
72921;BME280;61064;51.654;5.476;2023-02-18T08:03:30;101911.56;;;10.27;93.06
72921;BME280;61064;51.654;5.476;2023-02-18T08:05:56;101891.88;;;10.21;92.77
72921;BME280;61064;51.654;5.476;2023-02-18T08:08:24;101897.28;;;10.24;92.80
72921;BME280;61064;51.654;5.476;2023-02-18T08:10:51;101894.72;;;10.28;92.36
72921;BME280;61064;51.654;5.476;2023-02-18T08:13:17;101908.94;;;10.29;92.48
72921;BME280;61064;51.654;5.476;2023-02-18T08:15:43;101927.66;;;10.33;92.28
72921;BME280;61064;51.654;5.476;2023-02-18T08:18:15;101907.94;;;10.25;92.25
72921;BME280;61064;51.654;5.476;2023-02-18T08:20:40;101897.34;;;10.27;91.91
72921;BME280;61064;51.654;5.476;2023-02-18T08:23:06;101904.78;;;10.40;91.83
72921;BME280;61064;51.654;5.476;2023-02-18T08:25:31;101896.75;;;10.38;92.02
72921;BME280;61064;51.654;5.476;2023-02-18T08:27:57;101896.78;;;10.40;91.81
72921;BME280;61064;51.654;5.476;2023-02-18T08:30:23;101903.03;;;10.40;91.67
72921;BME280;61064;51.654;5.476;2023-02-18T08:32:48;101901.22;;;10.39;91.52
72921;BME280;61064;51.654;5.476;2023-02-18T08:35:14;101904.06;;;10.47;91.38
72921;BME280;61064;51.654;5.476;2023-02-18T08:37:39;101894.19;;;10.41;91.50
72921;BME280;61064;51.654;5.476;2023-02-18T08:40:05;101891.47;;;10.40;91.20
72921;BME280;61064;51.654;5.476;2023-02-18T08:42:31;101913.88;;;10.50;91.17
72921;BME280;61064;51.654;5.476;2023-02-18T08:44:56;101909.34;;;10.46;90.96
72921;BME280;61064;51.654;5.476;2023-02-18T08:47:22;101911.09;;;10.45;90.87
72921;BME280;61064;51.654;5.476;2023-02-18T08:49:47;101907.50;;;10.43;90.73
72921;BME280;61064;51.654;5.476;2023-02-18T08:52:12;101930.69;;;10.47;90.60
72921;BME280;61064;51.654;5.476;2023-02-18T08:54:38;101907.44;;;10.40;90.53
72921;BME280;61064;51.654;5.476;2023-02-18T08:57:03;101914.66;;;10.46;90.47
72921;BME280;61064;51.654;5.476;2023-02-18T08:59:29;101915.56;;;10.46;90.39
72921;BME280;61064;51.654;5.476;2023-02-18T09:01:54;101911.09;;;10.45;90.22
72921;BME280;61064;51.654;5.476;2023-02-18T09:04:19;101925.41;;;10.50;89.90
72921;BME280;61064;51.654;5.476;2023-02-18T09:06:46;101924.50;;;10.50;89.99
72921;BME280;61064;51.654;5.476;2023-02-18T09:09:11;101918.13;;;10.43;90.01
72921;BME280;61064;51.654;5.476;2023-02-18T09:11:37;101920.94;;;10.49;89.92
72921;BME280;61064;51.654;5.476;2023-02-18T09:14:02;101901.06;;;10.33;89.86
72921;BME280;61064;51.654;5.476;2023-02-18T09:16:28;101871.41;;;10.17;89.85
72921;BME280;61064;51.654;5.476;2023-02-18T09:18:54;101880.38;;;10.22;89.99
72921;BME280;61064;51.654;5.476;2023-02-18T09:21:21;101911.84;;;10.39;89.93
72921;BME280;61064;51.654;5.476;2023-02-18T09:23:48;101906.38;;;10.33;90.17
72921;BME280;61064;51.654;5.476;2023-02-18T09:26:14;101917.13;;;10.36;89.99
72921;BME280;61064;51.654;5.476;2023-02-18T09:28:41;101924.09;;;10.33;89.80
72921;BME280;61064;51.654;5.476;2023-02-18T09:31:12;101909.94;;;10.34;89.60
72921;BME280;61064;51.654;5.476;2023-02-18T09:33:41;101896.34;;;10.22;89.67
72921;BME280;61064;51.654;5.476;2023-02-18T09:36:06;101890.97;;;10.20;89.59
72921;BME280;61064;51.654;5.476;2023-02-18T09:38:32;101895.47;;;10.23;89.55
72921;BME280;61064;51.654;5.476;2023-02-18T09:40:59;101922.28;;;10.32;89.44
72921;BME280;61064;51.654;5.476;2023-02-18T09:43:39;101927.59;;;10.30;89.22
72921;BME280;61064;51.654;5.476;2023-02-18T09:46:21;101923.94;;;10.27;89.13
72921;BME280;61064;51.654;5.476;2023-02-18T09:48:47;101916.13;;;10.33;89.20
72921;BME280;61064;51.654;5.476;2023-02-18T09:51:14;101941.06;;;10.38;88.97
72921;BME280;61064;51.654;5.476;2023-02-18T09:53:41;101934.94;;;10.40;88.90
72921;BME280;61064;51.654;5.476;2023-02-18T09:56:14;101933.06;;;10.36;88.54
72921;BME280;61064;51.654;5.476;2023-02-18T09:58:42;101947.41;;;10.43;88.47
72921;BME280;61064;51.654;5.476;2023-02-18T10:01:19;101914.50;;;10.39;88.28
72921;BME280;61064;51.654;5.476;2023-02-18T10:03:46;101913.56;;;10.37;88.37
72921;BME280;61064;51.654;5.476;2023-02-18T10:06:17;101926.16;;;10.45;88.25
72921;BME280;61064;51.654;5.476;2023-02-18T10:08:47;101931.59;;;10.49;88.22
72921;BME280;61064;51.654;5.476;2023-02-18T10:11:17;101862.44;;;10.15;87.94
72921;BME280;61064;51.654;5.476;2023-02-18T10:13:46;101920.84;;;10.45;87.87
72921;BME280;61064;51.654;5.476;2023-02-18T10:16:17;101940.56;;;10.53;87.77
72921;BME280;61064;51.654;5.476;2023-02-18T10:21:43;101966.34;;;10.55;87.26
72921;BME280;61064;51.654;5.476;2023-02-18T10:24:40;101966.28;;;10.54;87.36
72921;BME280;61064;51.654;5.476;2023-02-18T10:27:07;101969.09;;;10.60;87.43
72921;BME280;61064;51.654;5.476;2023-02-18T10:29:34;101960.03;;;10.52;87.36
72921;BME280;61064;51.654;5.476;2023-02-18T10:48:06;101979.00;;;10.65;87.30
72921;BME280;61064;51.654;5.476;2023-02-18T10:50:43;101971.75;;;10.58;87.31
72921;BME280;61064;51.654;5.476;2023-02-18T10:53:36;101978.03;;;10.62;87.28
72921;BME280;61064;51.654;5.476;2023-02-18T10:56:05;101977.13;;;10.61;87.35
72921;BME280;61064;51.654;5.476;2023-02-18T10:58:35;101961.75;;;10.50;87.41
72921;BME280;61064;51.654;5.476;2023-02-18T11:01:14;101967.03;;;10.48;87.72
72921;BME280;61064;51.654;5.476;2023-02-18T11:06:06;101983.09;;;10.51;88.07
72921;BME280;61064;51.654;5.476;2023-02-18T11:08:42;101966.91;;;10.42;88.23
72921;BME280;61064;51.654;5.476;2023-02-18T11:11:16;101958.94;;;10.42;88.24
72921;BME280;61064;51.654;5.476;2023-02-18T11:13:51;101978.72;;;10.53;88.31
72921;BME280;61064;51.654;5.476;2023-02-18T11:16:21;101999.38;;;10.65;88.43
72921;BME280;61064;51.654;5.476;2023-02-18T11:18:46;101987.81;;;10.63;88.16
72921;BME280;61064;51.654;5.476;2023-02-18T11:23:49;101995.16;;;10.73;88.30
72921;BME280;61064;51.654;5.476;2023-02-18T11:26:17;101991.69;;;10.75;88.39
72921;BME280;61064;51.654;5.476;2023-02-18T11:28:48;101941.34;;;10.49;88.44
72921;BME280;61064;51.654;5.476;2023-02-18T11:31:21;101954.03;;;10.60;88.41
72921;BME280;61064;51.654;5.476;2023-02-18T11:33:54;101912.66;;;10.37;88.69
72921;BME280;61064;51.654;5.476;2023-02-18T11:36:34;101904.84;;;10.43;88.40
72921;BME280;61064;51.654;5.476;2023-02-18T11:39:03;101989.28;;;10.88;88.69
72921;BME280;61064;51.654;5.476;2023-02-18T11:41:36;101994.59;;;10.88;88.76
72921;BME280;61064;51.654;5.476;2023-02-18T11:44:16;101988.31;;;10.84;88.81
72921;BME280;61064;51.654;5.476;2023-02-18T11:49:33;101963.31;;;10.77;88.91
72921;BME280;61064;51.654;5.476;2023-02-18T11:52:22;101960.59;;;10.74;88.98
72921;BME280;61064;51.654;5.476;2023-02-18T11:55:05;101980.34;;;10.84;88.97
72921;BME280;61064;51.654;5.476;2023-02-18T11:57:34;101967.84;;;10.81;89.06
72921;BME280;61064;51.654;5.476;2023-02-18T12:00:05;101947.44;;;10.80;89.21
72921;BME280;61064;51.654;5.476;2023-02-18T12:02:40;101961.00;;;10.93;89.24
72921;BME280;61064;51.654;5.476;2023-02-18T12:05:17;101971.88;;;11.02;89.21
72921;BME280;61064;51.654;5.476;2023-02-18T12:10:39;101948.09;;;11.11;89.24
72921;BME280;61064;51.654;5.476;2023-02-18T12:23:50;101949.16;;;11.61;88.07
72921;BME280;61064;51.654;5.476;2023-02-18T12:26:55;101947.47;;;11.64;87.90
72921;BME280;61064;51.654;5.476;2023-02-18T12:32:14;101936.88;;;11.71;87.53
72921;BME280;61064;51.654;5.476;2023-02-18T12:37:48;101937.06;;;11.77;87.48
72921;BME280;61064;51.654;5.476;2023-02-18T12:40:50;101940.66;;;11.79;87.35
72921;BME280;61064;51.654;5.476;2023-02-18T13:04:50;101937.56;;;12.04;86.27
72921;BME280;61064;51.654;5.476;2023-02-18T13:13:25;101922.44;;;12.03;86.16
72921;BME280;61064;51.654;5.476;2023-02-18T13:15:58;101937.63;;;12.07;85.97
72921;BME280;61064;51.654;5.476;2023-02-18T13:18:39;101951.91;;;12.09;86.00
72921;BME280;61064;51.654;5.476;2023-02-18T13:21:08;101951.94;;;12.12;85.95
72921;BME280;61064;51.654;5.476;2023-02-18T13:23:39;101943.00;;;12.08;85.82
72921;BME280;61064;51.654;5.476;2023-02-18T13:26:12;101941.13;;;12.04;85.68
72921;BME280;61064;51.654;5.476;2023-02-18T13:31:44;101940.34;;;12.10;85.69
72921;BME280;61064;51.654;5.476;2023-02-18T13:34:33;101946.75;;;12.20;85.71
72921;BME280;61064;51.654;5.476;2023-02-18T13:40:20;101934.31;;;12.22;85.59
72921;BME280;61064;51.654;5.476;2023-02-18T13:42:50;101932.59;;;12.24;85.37
72921;BME280;61064;51.654;5.476;2023-02-18T13:45:28;101941.50;;;12.24;85.38
72921;BME280;61064;51.654;5.476;2023-02-18T13:47:55;101931.66;;;12.20;85.32
72921;BME280;61064;51.654;5.476;2023-02-18T13:50:25;101939.69;;;12.23;85.36
72921;BME280;61064;51.654;5.476;2023-02-18T13:53:13;101931.53;;;12.14;85.20
72921;BME280;61064;51.654;5.476;2023-02-18T13:55:51;101937.84;;;12.19;85.19
72921;BME280;61064;51.654;5.476;2023-02-18T13:58:42;101949.50;;;12.24;85.04
72921;BME280;61064;51.654;5.476;2023-02-18T14:01:13;101957.50;;;12.24;85.04
72921;BME280;61064;51.654;5.476;2023-02-18T14:06:21;101945.91;;;12.24;84.88
72921;BME280;61064;51.654;5.476;2023-02-18T14:08:48;101931.44;;;12.09;84.91
72921;BME280;61064;51.654;5.476;2023-02-18T14:13:41;101956.53;;;12.19;84.55
72921;BME280;61064;51.654;5.476;2023-02-18T14:16:08;101942.16;;;12.13;84.76
72921;BME280;61064;51.654;5.476;2023-02-18T14:21:16;101950.28;;;12.19;84.74
72921;BME280;61064;51.654;5.476;2023-02-18T14:23:54;101955.72;;;12.26;84.85
72921;BME280;61064;51.654;5.476;2023-02-18T14:27:00;101962.94;;;12.30;85.02
72921;BME280;61064;51.654;5.476;2023-02-18T14:29:32;101951.41;;;12.31;84.73
72921;BME280;61064;51.654;5.476;2023-02-18T14:32:02;101954.09;;;12.34;84.88
72921;BME280;61064;51.654;5.476;2023-02-18T14:43:10;101961.34;;;12.41;83.66
72921;BME280;61064;51.654;5.476;2023-02-18T14:51:01;101953.44;;;12.49;83.79
72921;BME280;61064;51.654;5.476;2023-02-18T14:53:27;101952.59;;;12.50;83.84
72921;BME280;61064;51.654;5.476;2023-02-18T14:56:03;101950.88;;;12.54;83.39
72921;BME280;61064;51.654;5.476;2023-02-18T14:58:34;101952.69;;;12.56;83.40
72921;BME280;61064;51.654;5.476;2023-02-18T15:01:17;101944.53;;;12.48;83.13
72921;BME280;61064;51.654;5.476;2023-02-18T15:03:43;101949.88;;;12.48;83.33
72921;BME280;61064;51.654;5.476;2023-02-18T15:08:52;101950.78;;;12.49;83.15
72921;BME280;61064;51.654;5.476;2023-02-18T15:11:20;101953.56;;;12.54;83.19
72921;BME280;61064;51.654;5.476;2023-02-18T15:13:47;101948.91;;;12.43;83.28